sensor_id;sensor_type;location;lat;lon;timestamp;P1;durP1;ratioP1;P2;durP2;ratioP2
12042;SDS011;6082;49.306;12.862;2022-11-20T00:02:20;16.73;;;8.43;;
12042;SDS011;6082;49.306;12.862;2022-11-20T00:04:46;16.43;;;6.43;;
12042;SDS011;6082;49.306;12.862;2022-11-20T00:07:12;18.47;;;9.00;;
12042;SDS011;6082;49.306;12.862;2022-11-20T00:09:38;18.97;;;7.53;;
12042;SDS011;6082;49.306;12.862;2022-11-20T00:12:04;16.00;;;7.47;;
12042;SDS011;6082;49.306;12.862;2022-11-20T00:14:30;14.97;;;7.07;;
12042;SDS011;6082;49.306;12.862;2022-11-20T00:16:56;13.93;;;7.47;;
12042;SDS011;6082;49.306;12.862;2022-11-20T00:19:22;16.20;;;7.63;;
12042;SDS011;6082;49.306;12.862;2022-11-20T00:21:48;13.23;;;6.83;;
12042;SDS011;6082;49.306;12.862;2022-11-20T00:24:16;16.33;;;7.50;;
12042;SDS011;6082;49.306;12.862;2022-11-20T00:26:42;18.53;;;7.67;;
12042;SDS011;6082;49.306;12.862;2022-11-20T00:29:09;17.47;;;7.33;;
12042;SDS011;6082;49.306;12.862;2022-11-20T00:31:35;16.90;;;8.20;;
12042;SDS011;6082;49.306;12.862;2022-11-20T00:34:02;14.33;;;7.00;;
12042;SDS011;6082;49.306;12.862;2022-11-20T00:36:28;12.07;;;6.83;;
12042;SDS011;6082;49.306;12.862;2022-11-20T00:38:58;16.60;;;6.53;;
12042;SDS011;6082;49.306;12.862;2022-11-20T00:41:24;12.07;;;5.73;;
12042;SDS011;6082;49.306;12.862;2022-11-20T00:43:51;14.70;;;7.13;;
12042;SDS011;6082;49.306;12.862;2022-11-20T00:46:18;13.33;;;7.27;;
12042;SDS011;6082;49.306;12.862;2022-11-20T00:48:44;16.43;;;8.73;;
12042;SDS011;6082;49.306;12.862;2022-11-20T00:51:11;11.17;;;6.57;;
12042;SDS011;6082;49.306;12.862;2022-11-20T00:53:38;11.43;;;5.80;;
12042;SDS011;6082;49.306;12.862;2022-11-20T00:56:05;21.90;;;8.33;;
12042;SDS011;6082;49.306;12.862;2022-11-20T00:58:32;17.10;;;9.17;;
12042;SDS011;6082;49.306;12.862;2022-11-20T01:03:31;17.33;;;8.30;;
12042;SDS011;6082;49.306;12.862;2022-11-20T01:06:05;19.57;;;8.60;;
12042;SDS011;6082;49.306;12.862;2022-11-20T01:08:32;20.57;;;8.77;;
12042;SDS011;6082;49.306;12.862;2022-11-20T01:10:59;17.87;;;7.87;;
12042;SDS011;6082;49.306;12.862;2022-11-20T01:13:26;19.90;;;8.70;;
12042;SDS011;6082;49.306;12.862;2022-11-20T01:16:12;18.47;;;7.13;;
12042;SDS011;6082;49.306;12.862;2022-11-20T01:18:40;18.00;;;8.77;;
12042;SDS011;6082;49.306;12.862;2022-11-20T01:21:11;20.10;;;8.83;;
12042;SDS011;6082;49.306;12.862;2022-11-20T01:23:38;21.87;;;9.87;;
12042;SDS011;6082;49.306;12.862;2022-11-20T01:26:05;15.60;;;8.40;;
12042;SDS011;6082;49.306;12.862;2022-11-20T01:28:32;18.90;;;9.40;;
12042;SDS011;6082;49.306;12.862;2022-11-20T01:30:58;19.73;;;9.13;;
12042;SDS011;6082;49.306;12.862;2022-11-20T01:33:24;14.40;;;7.60;;
12042;SDS011;6082;49.306;12.862;2022-11-20T01:35:51;17.60;;;8.03;;
12042;SDS011;6082;49.306;12.862;2022-11-20T01:38:17;21.77;;;8.77;;
12042;SDS011;6082;49.306;12.862;2022-11-20T01:40:45;17.97;;;7.63;;
12042;SDS011;6082;49.306;12.862;2022-11-20T01:43:13;18.80;;;9.03;;
12042;SDS011;6082;49.306;12.862;2022-11-20T01:48:14;13.20;;;6.57;;
12042;SDS011;6082;49.306;12.862;2022-11-20T01:50:40;13.80;;;7.07;;
12042;SDS011;6082;49.306;12.862;2022-11-20T01:53:08;16.30;;;7.60;;
12042;SDS011;6082;49.306;12.862;2022-11-20T01:55:37;19.30;;;8.37;;
12042;SDS011;6082;49.306;12.862;2022-11-20T01:58:05;21.60;;;10.03;;
12042;SDS011;6082;49.306;12.862;2022-11-20T02:00:31;22.30;;;8.97;;
12042;SDS011;6082;49.306;12.862;2022-11-20T02:02:58;18.77;;;8.77;;
12042;SDS011;6082;49.306;12.862;2022-11-20T02:05:35;15.57;;;7.10;;
12042;SDS011;6082;49.306;12.862;2022-11-20T02:08:04;15.90;;;7.00;;
12042;SDS011;6082;49.306;12.862;2022-11-20T02:10:30;20.27;;;10.33;;
12042;SDS011;6082;49.306;12.862;2022-11-20T02:12:57;20.00;;;7.63;;
12042;SDS011;6082;49.306;12.862;2022-11-20T02:15:42;18.10;;;8.37;;
12042;SDS011;6082;49.306;12.862;2022-11-20T02:18:11;19.13;;;9.60;;
12042;SDS011;6082;49.306;12.862;2022-11-20T02:20:40;18.40;;;8.97;;
12042;SDS011;6082;49.306;12.862;2022-11-20T02:23:10;20.20;;;9.87;;
12042;SDS011;6082;49.306;12.862;2022-11-20T02:25:37;17.73;;;8.50;;
12042;SDS011;6082;49.306;12.862;2022-11-20T02:28:05;23.77;;;9.53;;
12042;SDS011;6082;49.306;12.862;2022-11-20T02:30:31;24.23;;;9.70;;
12042;SDS011;6082;49.306;12.862;2022-11-20T02:32:57;18.70;;;8.27;;
12042;SDS011;6082;49.306;12.862;2022-11-20T02:37:50;18.00;;;8.20;;
12042;SDS011;6082;49.306;12.862;2022-11-20T02:40:17;19.20;;;8.87;;
12042;SDS011;6082;49.306;12.862;2022-11-20T02:42:43;16.43;;;6.50;;
12042;SDS011;6082;49.306;12.862;2022-11-20T02:45:10;18.37;;;8.30;;
12042;SDS011;6082;49.306;12.862;2022-11-20T02:47:36;20.27;;;8.07;;
12042;SDS011;6082;49.306;12.862;2022-11-20T02:50:03;16.10;;;7.90;;
12042;SDS011;6082;49.306;12.862;2022-11-20T02:52:29;15.10;;;7.93;;
12042;SDS011;6082;49.306;12.862;2022-11-20T02:54:55;17.07;;;8.43;;
12042;SDS011;6082;49.306;12.862;2022-11-20T02:57:21;15.50;;;7.23;;
12042;SDS011;6082;49.306;12.862;2022-11-20T02:59:47;14.53;;;7.97;;
12042;SDS011;6082;49.306;12.862;2022-11-20T03:02:13;21.33;;;9.20;;
12042;SDS011;6082;49.306;12.862;2022-11-20T03:04:39;18.87;;;7.87;;
12042;SDS011;6082;49.306;12.862;2022-11-20T03:07:07;18.63;;;7.53;;
12042;SDS011;6082;49.306;12.862;2022-11-20T03:09:33;15.90;;;7.87;;
12042;SDS011;6082;49.306;12.862;2022-11-20T03:11:59;20.13;;;9.07;;
12042;SDS011;6082;49.306;12.862;2022-11-20T03:14:25;16.87;;;7.37;;
12042;SDS011;6082;49.306;12.862;2022-11-20T03:16:51;20.63;;;9.27;;
12042;SDS011;6082;49.306;12.862;2022-11-20T03:19:17;15.27;;;8.37;;
12042;SDS011;6082;49.306;12.862;2022-11-20T03:21:43;19.47;;;9.00;;
12042;SDS011;6082;49.306;12.862;2022-11-20T03:24:09;20.27;;;8.50;;
12042;SDS011;6082;49.306;12.862;2022-11-20T03:26:35;14.67;;;7.23;;
12042;SDS011;6082;49.306;12.862;2022-11-20T03:29:02;20.83;;;9.03;;
12042;SDS011;6082;49.306;12.862;2022-11-20T03:31:31;22.37;;;9.47;;
12042;SDS011;6082;49.306;12.862;2022-11-20T03:33:57;14.83;;;7.17;;
12042;SDS011;6082;49.306;12.862;2022-11-20T03:36:23;27.50;;;9.60;;
12042;SDS011;6082;49.306;12.862;2022-11-20T03:38:49;20.97;;;8.47;;
12042;SDS011;6082;49.306;12.862;2022-11-20T03:41:17;17.63;;;8.80;;
12042;SDS011;6082;49.306;12.862;2022-11-20T03:43:50;17.27;;;7.97;;
12042;SDS011;6082;49.306;12.862;2022-11-20T03:46:17;20.97;;;8.53;;
12042;SDS011;6082;49.306;12.862;2022-11-20T03:48:43;13.20;;;6.73;;
12042;SDS011;6082;49.306;12.862;2022-11-20T03:51:10;23.13;;;9.10;;
12042;SDS011;6082;49.306;12.862;2022-11-20T03:53:37;18.30;;;8.57;;
12042;SDS011;6082;49.306;12.862;2022-11-20T03:56:03;25.60;;;8.93;;
12042;SDS011;6082;49.306;12.862;2022-11-20T03:58:29;24.47;;;9.33;;
12042;SDS011;6082;49.306;12.862;2022-11-20T04:00:55;20.23;;;9.13;;
12042;SDS011;6082;49.306;12.862;2022-11-20T04:03:21;24.27;;;7.83;;
12042;SDS011;6082;49.306;12.862;2022-11-20T04:05:47;16.10;;;7.97;;
12042;SDS011;6082;49.306;12.862;2022-11-20T04:08:13;27.67;;;9.60;;
12042;SDS011;6082;49.306;12.862;2022-11-20T04:10:39;18.67;;;8.00;;
12042;SDS011;6082;49.306;12.862;2022-11-20T04:13:05;19.03;;;7.13;;
12042;SDS011;6082;49.306;12.862;2022-11-20T04:15:31;20.03;;;9.03;;
12042;SDS011;6082;49.306;12.862;2022-11-20T04:17:57;17.20;;;7.27;;
12042;SDS011;6082;49.306;12.862;2022-11-20T04:20:23;21.97;;;9.53;;
12042;SDS011;6082;49.306;12.862;2022-11-20T04:22:52;24.80;;;10.27;;
12042;SDS011;6082;49.306;12.862;2022-11-20T04:25:19;22.80;;;9.37;;
12042;SDS011;6082;49.306;12.862;2022-11-20T04:27:45;20.53;;;9.27;;
12042;SDS011;6082;49.306;12.862;2022-11-20T04:30:11;18.40;;;7.97;;
12042;SDS011;6082;49.306;12.862;2022-11-20T04:32:37;18.70;;;7.83;;
12042;SDS011;6082;49.306;12.862;2022-11-20T04:35:03;18.03;;;8.83;;
12042;SDS011;6082;49.306;12.862;2022-11-20T04:37:29;23.53;;;9.20;;
12042;SDS011;6082;49.306;12.862;2022-11-20T04:39:55;19.73;;;10.03;;
12042;SDS011;6082;49.306;12.862;2022-11-20T04:42:21;23.07;;;9.47;;
12042;SDS011;6082;49.306;12.862;2022-11-20T04:44:59;18.93;;;8.37;;
12042;SDS011;6082;49.306;12.862;2022-11-20T04:47:39;20.40;;;8.80;;
12042;SDS011;6082;49.306;12.862;2022-11-20T04:50:05;21.53;;;7.63;;
12042;SDS011;6082;49.306;12.862;2022-11-20T04:52:31;29.83;;;10.13;;
12042;SDS011;6082;49.306;12.862;2022-11-20T04:54:57;18.50;;;10.83;;
12042;SDS011;6082;49.306;12.862;2022-11-20T04:57:23;27.40;;;11.73;;
12042;SDS011;6082;49.306;12.862;2022-11-20T04:59:49;21.37;;;9.80;;
12042;SDS011;6082;49.306;12.862;2022-11-20T05:02:15;21.07;;;10.20;;
12042;SDS011;6082;49.306;12.862;2022-11-20T05:04:41;21.87;;;9.57;;
12042;SDS011;6082;49.306;12.862;2022-11-20T05:07:07;17.07;;;8.33;;
12042;SDS011;6082;49.306;12.862;2022-11-20T05:09:33;18.67;;;8.70;;
12042;SDS011;6082;49.306;12.862;2022-11-20T05:11:59;25.50;;;9.27;;
12042;SDS011;6082;49.306;12.862;2022-11-20T05:14:25;21.30;;;9.77;;
12042;SDS011;6082;49.306;12.862;2022-11-20T05:16:51;18.13;;;8.10;;
12042;SDS011;6082;49.306;12.862;2022-11-20T05:19:17;20.40;;;8.97;;
12042;SDS011;6082;49.306;12.862;2022-11-20T05:21:43;16.27;;;8.03;;
12042;SDS011;6082;49.306;12.862;2022-11-20T05:24:09;18.60;;;8.40;;
12042;SDS011;6082;49.306;12.862;2022-11-20T05:26:35;28.47;;;10.87;;
12042;SDS011;6082;49.306;12.862;2022-11-20T05:29:01;15.97;;;7.47;;
12042;SDS011;6082;49.306;12.862;2022-11-20T05:31:27;24.50;;;10.13;;
12042;SDS011;6082;49.306;12.862;2022-11-20T05:33:53;16.80;;;8.30;;
12042;SDS011;6082;49.306;12.862;2022-11-20T05:36:19;23.50;;;9.47;;
12042;SDS011;6082;49.306;12.862;2022-11-20T05:38:45;17.10;;;8.43;;
12042;SDS011;6082;49.306;12.862;2022-11-20T05:41:13;22.23;;;8.77;;
12042;SDS011;6082;49.306;12.862;2022-11-20T05:43:40;20.73;;;9.23;;
12042;SDS011;6082;49.306;12.862;2022-11-20T05:46:06;21.17;;;7.93;;
12042;SDS011;6082;49.306;12.862;2022-11-20T05:48:33;21.20;;;9.80;;
12042;SDS011;6082;49.306;12.862;2022-11-20T05:50:59;28.27;;;10.87;;
12042;SDS011;6082;49.306;12.862;2022-11-20T05:53:25;19.13;;;9.23;;
12042;SDS011;6082;49.306;12.862;2022-11-20T05:56:05;14.97;;;8.00;;
12042;SDS011;6082;49.306;12.862;2022-11-20T05:58:32;25.53;;;10.77;;
12042;SDS011;6082;49.306;12.862;2022-11-20T06:03:33;18.60;;;8.00;;
12042;SDS011;6082;49.306;12.862;2022-11-20T06:05:59;18.30;;;10.07;;
12042;SDS011;6082;49.306;12.862;2022-11-20T06:08:25;21.93;;;8.97;;
12042;SDS011;6082;49.306;12.862;2022-11-20T06:10:51;22.33;;;9.00;;
12042;SDS011;6082;49.306;12.862;2022-11-20T06:13:17;22.67;;;10.37;;
12042;SDS011;6082;49.306;12.862;2022-11-20T06:15:50;25.77;;;10.10;;
12042;SDS011;6082;49.306;12.862;2022-11-20T06:18:16;23.47;;;9.63;;
12042;SDS011;6082;49.306;12.862;2022-11-20T06:20:42;21.20;;;9.00;;
12042;SDS011;6082;49.306;12.862;2022-11-20T06:23:08;18.37;;;9.43;;
12042;SDS011;6082;49.306;12.862;2022-11-20T06:25:37;20.57;;;8.77;;
12042;SDS011;6082;49.306;12.862;2022-11-20T06:28:03;20.73;;;8.70;;
12042;SDS011;6082;49.306;12.862;2022-11-20T06:30:29;20.70;;;9.00;;
12042;SDS011;6082;49.306;12.862;2022-11-20T06:32:55;23.93;;;11.13;;
12042;SDS011;6082;49.306;12.862;2022-11-20T06:35:21;21.47;;;10.13;;
12042;SDS011;6082;49.306;12.862;2022-11-20T06:37:47;20.77;;;9.63;;
12042;SDS011;6082;49.306;12.862;2022-11-20T06:40:13;19.00;;;7.67;;
12042;SDS011;6082;49.306;12.862;2022-11-20T06:42:39;18.53;;;9.23;;
12042;SDS011;6082;49.306;12.862;2022-11-20T06:45:05;22.40;;;9.00;;
12042;SDS011;6082;49.306;12.862;2022-11-20T06:47:31;19.90;;;8.10;;
12042;SDS011;6082;49.306;12.862;2022-11-20T06:49:58;17.40;;;8.33;;
12042;SDS011;6082;49.306;12.862;2022-11-20T06:52:24;18.03;;;8.70;;
12042;SDS011;6082;49.306;12.862;2022-11-20T06:54:50;19.77;;;9.57;;
12042;SDS011;6082;49.306;12.862;2022-11-20T06:57:17;18.67;;;7.80;;
12042;SDS011;6082;49.306;12.862;2022-11-20T06:59:44;20.27;;;9.23;;
12042;SDS011;6082;49.306;12.862;2022-11-20T07:02:10;18.87;;;9.07;;
12042;SDS011;6082;49.306;12.862;2022-11-20T07:04:37;19.17;;;8.73;;
12042;SDS011;6082;49.306;12.862;2022-11-20T07:07:03;29.80;;;10.70;;
12042;SDS011;6082;49.306;12.862;2022-11-20T07:09:29;24.93;;;11.07;;
12042;SDS011;6082;49.306;12.862;2022-11-20T07:11:55;26.97;;;11.37;;
12042;SDS011;6082;49.306;12.862;2022-11-20T07:14:32;21.00;;;10.70;;
12042;SDS011;6082;49.306;12.862;2022-11-20T07:16:58;15.87;;;9.53;;
12042;SDS011;6082;49.306;12.862;2022-11-20T07:19:24;14.83;;;8.93;;
12042;SDS011;6082;49.306;12.862;2022-11-20T07:21:50;15.30;;;9.33;;
12042;SDS011;6082;49.306;12.862;2022-11-20T07:24:17;20.87;;;8.60;;
12042;SDS011;6082;49.306;12.862;2022-11-20T07:26:45;15.57;;;7.97;;
12042;SDS011;6082;49.306;12.862;2022-11-20T07:29:11;14.77;;;8.37;;
12042;SDS011;6082;49.306;12.862;2022-11-20T07:31:37;15.63;;;7.57;;
12042;SDS011;6082;49.306;12.862;2022-11-20T07:34:03;16.33;;;7.83;;
12042;SDS011;6082;49.306;12.862;2022-11-20T07:36:29;17.67;;;9.67;;
12042;SDS011;6082;49.306;12.862;2022-11-20T07:38:55;19.27;;;8.63;;
12042;SDS011;6082;49.306;12.862;2022-11-20T07:41:21;19.70;;;9.20;;
12042;SDS011;6082;49.306;12.862;2022-11-20T07:43:47;19.03;;;9.63;;
12042;SDS011;6082;49.306;12.862;2022-11-20T07:46:13;16.13;;;9.60;;
12042;SDS011;6082;49.306;12.862;2022-11-20T07:48:39;22.23;;;8.40;;
12042;SDS011;6082;49.306;12.862;2022-11-20T07:51:05;17.03;;;7.63;;
12042;SDS011;6082;49.306;12.862;2022-11-20T07:53:31;21.17;;;9.57;;
12042;SDS011;6082;49.306;12.862;2022-11-20T07:56:03;23.13;;;10.23;;
12042;SDS011;6082;49.306;12.862;2022-11-20T07:58:29;19.50;;;9.53;;
12042;SDS011;6082;49.306;12.862;2022-11-20T08:00:57;19.83;;;9.80;;
12042;SDS011;6082;49.306;12.862;2022-11-20T08:03:23;18.87;;;7.70;;
12042;SDS011;6082;49.306;12.862;2022-11-20T08:05:49;16.53;;;8.60;;
12042;SDS011;6082;49.306;12.862;2022-11-20T08:08:16;18.60;;;8.57;;
12042;SDS011;6082;49.306;12.862;2022-11-20T08:10:42;16.13;;;8.30;;
12042;SDS011;6082;49.306;12.862;2022-11-20T08:13:08;19.73;;;9.03;;
12042;SDS011;6082;49.306;12.862;2022-11-20T08:15:53;18.90;;;8.20;;
12042;SDS011;6082;49.306;12.862;2022-11-20T08:18:19;14.33;;;7.63;;
12042;SDS011;6082;49.306;12.862;2022-11-20T08:20:45;19.33;;;8.60;;
12042;SDS011;6082;49.306;12.862;2022-11-20T08:23:11;13.17;;;6.97;;
12042;SDS011;6082;49.306;12.862;2022-11-20T08:25:37;16.20;;;7.67;;
12042;SDS011;6082;49.306;12.862;2022-11-20T08:28:05;21.70;;;7.77;;
12042;SDS011;6082;49.306;12.862;2022-11-20T08:30:33;18.60;;;8.17;;
12042;SDS011;6082;49.306;12.862;2022-11-20T08:33:03;15.30;;;7.43;;
12042;SDS011;6082;49.306;12.862;2022-11-20T08:35:33;14.83;;;6.80;;
12042;SDS011;6082;49.306;12.862;2022-11-20T08:38:00;14.63;;;7.47;;
12042;SDS011;6082;49.306;12.862;2022-11-20T08:40:26;18.10;;;9.07;;
12042;SDS011;6082;49.306;12.862;2022-11-20T08:42:52;16.23;;;7.30;;
12042;SDS011;6082;49.306;12.862;2022-11-20T08:45:18;16.00;;;7.50;;
12042;SDS011;6082;49.306;12.862;2022-11-20T08:47:45;24.67;;;9.63;;
12042;SDS011;6082;49.306;12.862;2022-11-20T08:50:12;23.93;;;10.83;;
12042;SDS011;6082;49.306;12.862;2022-11-20T08:52:38;24.73;;;12.10;;
12042;SDS011;6082;49.306;12.862;2022-11-20T08:55:05;21.53;;;9.57;;
12042;SDS011;6082;49.306;12.862;2022-11-20T08:57:34;21.07;;;11.23;;
12042;SDS011;6082;49.306;12.862;2022-11-20T09:00:01;20.10;;;11.50;;
12042;SDS011;6082;49.306;12.862;2022-11-20T09:02:28;21.37;;;9.70;;
12042;SDS011;6082;49.306;12.862;2022-11-20T09:04:54;26.70;;;12.73;;
12042;SDS011;6082;49.306;12.862;2022-11-20T09:07:20;21.30;;;10.20;;
12042;SDS011;6082;49.306;12.862;2022-11-20T09:09:46;22.00;;;10.57;;
12042;SDS011;6082;49.306;12.862;2022-11-20T09:12:12;20.33;;;10.00;;
12042;SDS011;6082;49.306;12.862;2022-11-20T09:14:38;20.20;;;9.37;;
12042;SDS011;6082;49.306;12.862;2022-11-20T09:17:04;23.37;;;10.43;;
12042;SDS011;6082;49.306;12.862;2022-11-20T09:19:32;25.83;;;13.40;;
12042;SDS011;6082;49.306;12.862;2022-11-20T09:21:58;32.83;;;15.90;;
12042;SDS011;6082;49.306;12.862;2022-11-20T09:24:25;28.73;;;13.77;;
12042;SDS011;6082;49.306;12.862;2022-11-20T09:26:51;25.03;;;12.03;;
12042;SDS011;6082;49.306;12.862;2022-11-20T09:29:17;33.30;;;14.83;;
12042;SDS011;6082;49.306;12.862;2022-11-20T09:31:43;30.60;;;15.67;;
12042;SDS011;6082;49.306;12.862;2022-11-20T09:34:09;33.20;;;14.93;;
12042;SDS011;6082;49.306;12.862;2022-11-20T09:36:35;30.03;;;13.83;;
12042;SDS011;6082;49.306;12.862;2022-11-20T09:39:01;23.63;;;13.37;;
12042;SDS011;6082;49.306;12.862;2022-11-20T09:46:29;23.23;;;11.13;;
12042;SDS011;6082;49.306;12.862;2022-11-20T09:51:44;29.10;;;13.17;;
12042;SDS011;6082;49.306;12.862;2022-11-20T09:54:22;23.53;;;11.90;;
12042;SDS011;6082;49.306;12.862;2022-11-20T09:56:56;30.40;;;14.37;;
12042;SDS011;6082;49.306;12.862;2022-11-20T10:01:56;16.73;;;8.63;;
12042;SDS011;6082;49.306;12.862;2022-11-20T10:04:23;17.13;;;9.80;;
12042;SDS011;6082;49.306;12.862;2022-11-20T10:09:21;15.77;;;8.17;;
12042;SDS011;6082;49.306;12.862;2022-11-20T10:11:56;22.70;;;9.33;;
12042;SDS011;6082;49.306;12.862;2022-11-20T10:14:32;21.80;;;9.47;;
12042;SDS011;6082;49.306;12.862;2022-11-20T10:17:02;15.60;;;8.17;;
12042;SDS011;6082;49.306;12.862;2022-11-20T10:22:19;13.77;;;7.17;;
12042;SDS011;6082;49.306;12.862;2022-11-20T10:27:36;12.80;;;7.33;;
12042;SDS011;6082;49.306;12.862;2022-11-20T10:30:08;20.00;;;9.70;;
12042;SDS011;6082;49.306;12.862;2022-11-20T10:32:42;22.07;;;9.47;;
12042;SDS011;6082;49.306;12.862;2022-11-20T10:35:23;23.33;;;9.77;;
12042;SDS011;6082;49.306;12.862;2022-11-20T10:37:53;23.03;;;10.17;;
12042;SDS011;6082;49.306;12.862;2022-11-20T10:40:26;24.60;;;13.47;;
12042;SDS011;6082;49.306;12.862;2022-11-20T10:42:57;23.07;;;13.33;;
12042;SDS011;6082;49.306;12.862;2022-11-20T10:47:56;23.73;;;11.03;;
12042;SDS011;6082;49.306;12.862;2022-11-20T10:50:24;20.07;;;11.17;;
12042;SDS011;6082;49.306;12.862;2022-11-20T11:00:37;21.73;;;11.40;;
12042;SDS011;6082;49.306;12.862;2022-11-20T11:03:07;21.87;;;10.83;;
12042;SDS011;6082;49.306;12.862;2022-11-20T11:05:40;21.50;;;11.13;;
12042;SDS011;6082;49.306;12.862;2022-11-20T11:08:12;22.37;;;10.73;;
12042;SDS011;6082;49.306;12.862;2022-11-20T11:10:55;29.90;;;12.33;;
12042;SDS011;6082;49.306;12.862;2022-11-20T11:13:24;24.13;;;12.97;;
12042;SDS011;6082;49.306;12.862;2022-11-20T11:15:50;30.13;;;13.83;;
12042;SDS011;6082;49.306;12.862;2022-11-20T11:18:26;25.60;;;13.53;;
12042;SDS011;6082;49.306;12.862;2022-11-20T11:20:53;21.70;;;10.73;;
12042;SDS011;6082;49.306;12.862;2022-11-20T11:23:30;26.80;;;14.43;;
12042;SDS011;6082;49.306;12.862;2022-11-20T11:25:58;31.83;;;16.50;;
12042;SDS011;6082;49.306;12.862;2022-11-20T11:28:24;32.17;;;14.93;;
12042;SDS011;6082;49.306;12.862;2022-11-20T11:30:52;31.37;;;15.60;;
12042;SDS011;6082;49.306;12.862;2022-11-20T11:33:19;28.37;;;13.47;;
12042;SDS011;6082;49.306;12.862;2022-11-20T11:35:47;33.53;;;14.57;;
12042;SDS011;6082;49.306;12.862;2022-11-20T11:38:14;33.90;;;17.07;;
12042;SDS011;6082;49.306;12.862;2022-11-20T11:40:43;51.27;;;19.87;;
12042;SDS011;6082;49.306;12.862;2022-11-20T11:43:22;43.40;;;20.60;;
12042;SDS011;6082;49.306;12.862;2022-11-20T11:48:40;22.60;;;12.30;;
12042;SDS011;6082;49.306;12.862;2022-11-20T11:51:07;22.77;;;10.93;;
12042;SDS011;6082;49.306;12.862;2022-11-20T11:53:34;19.73;;;11.67;;
12042;SDS011;6082;49.306;12.862;2022-11-20T11:56:10;20.07;;;10.70;;
12042;SDS011;6082;49.306;12.862;2022-11-20T11:58:45;26.33;;;12.17;;
12042;SDS011;6082;49.306;12.862;2022-11-20T12:01:32;21.07;;;10.03;;
12042;SDS011;6082;49.306;12.862;2022-11-20T12:04:11;27.73;;;13.60;;
12042;SDS011;6082;49.306;12.862;2022-11-20T12:06:42;16.87;;;9.47;;
12042;SDS011;6082;49.306;12.862;2022-11-20T12:09:09;15.67;;;9.43;;
12042;SDS011;6082;49.306;12.862;2022-11-20T12:16:34;27.07;;;12.60;;
12042;SDS011;6082;49.306;12.862;2022-11-20T12:19:01;16.50;;;8.87;;
12042;SDS011;6082;49.306;12.862;2022-11-20T12:24:00;19.37;;;9.77;;
12042;SDS011;6082;49.306;12.862;2022-11-20T12:37:01;15.93;;;7.03;;
12042;SDS011;6082;49.306;12.862;2022-11-20T12:39:34;16.33;;;9.00;;
12042;SDS011;6082;49.306;12.862;2022-11-20T12:55:13;14.97;;;7.90;;
12042;SDS011;6082;49.306;12.862;2022-11-20T12:57:48;16.03;;;9.63;;
12042;SDS011;6082;49.306;12.862;2022-11-20T13:07:43;18.20;;;8.47;;
12042;SDS011;6082;49.306;12.862;2022-11-20T13:10:18;15.13;;;7.53;;
12042;SDS011;6082;49.306;12.862;2022-11-20T13:12:48;18.53;;;9.23;;
12042;SDS011;6082;49.306;12.862;2022-11-20T13:18:00;20.30;;;8.83;;
12042;SDS011;6082;49.306;12.862;2022-11-20T13:20:27;17.90;;;9.20;;
12042;SDS011;6082;49.306;12.862;2022-11-20T13:22:55;13.33;;;8.07;;
12042;SDS011;6082;49.306;12.862;2022-11-20T13:25:35;10.10;;;5.43;;
12042;SDS011;6082;49.306;12.862;2022-11-20T13:28:05;14.50;;;7.60;;
12042;SDS011;6082;49.306;12.862;2022-11-20T13:30:51;12.40;;;6.90;;
12042;SDS011;6082;49.306;12.862;2022-11-20T13:33:28;24.87;;;12.57;;
12042;SDS011;6082;49.306;12.862;2022-11-20T13:35:56;15.07;;;7.80;;
12042;SDS011;6082;49.306;12.862;2022-11-20T13:38:23;12.83;;;7.90;;
12042;SDS011;6082;49.306;12.862;2022-11-20T13:40:54;23.37;;;7.37;;
12042;SDS011;6082;49.306;12.862;2022-11-20T13:46:03;12.63;;;6.93;;
12042;SDS011;6082;49.306;12.862;2022-11-20T13:48:31;8.83;;;5.87;;
12042;SDS011;6082;49.306;12.862;2022-11-20T13:51:04;6.63;;;4.53;;
12042;SDS011;6082;49.306;12.862;2022-11-20T13:59:02;16.63;;;7.63;;
12042;SDS011;6082;49.306;12.862;2022-11-20T14:01:32;13.57;;;5.83;;
12042;SDS011;6082;49.306;12.862;2022-11-20T14:03:59;8.10;;;4.70;;
12042;SDS011;6082;49.306;12.862;2022-11-20T14:06:30;9.97;;;5.03;;
12042;SDS011;6082;49.306;12.862;2022-11-20T14:08:58;8.47;;;4.60;;
12042;SDS011;6082;49.306;12.862;2022-11-20T14:11:28;8.10;;;4.07;;
12042;SDS011;6082;49.306;12.862;2022-11-20T14:16:29;6.80;;;4.30;;
12042;SDS011;6082;49.306;12.862;2022-11-20T14:18:56;7.47;;;4.00;;
12042;SDS011;6082;49.306;12.862;2022-11-20T14:21:27;5.90;;;3.63;;
12042;SDS011;6082;49.306;12.862;2022-11-20T14:23:54;5.33;;;3.20;;
12042;SDS011;6082;49.306;12.862;2022-11-20T14:26:20;6.27;;;3.67;;
12042;SDS011;6082;49.306;12.862;2022-11-20T14:28:49;7.67;;;4.70;;
12042;SDS011;6082;49.306;12.862;2022-11-20T14:31:24;8.33;;;5.63;;
12042;SDS011;6082;49.306;12.862;2022-11-20T14:33:51;10.77;;;6.87;;
12042;SDS011;6082;49.306;12.862;2022-11-20T14:36:18;10.43;;;5.67;;
12042;SDS011;6082;49.306;12.862;2022-11-20T14:38:49;6.13;;;4.27;;
12042;SDS011;6082;49.306;12.862;2022-11-20T14:41:17;9.90;;;5.43;;
12042;SDS011;6082;49.306;12.862;2022-11-20T14:43:54;7.27;;;5.00;;
12042;SDS011;6082;49.306;12.862;2022-11-20T14:46:21;9.13;;;5.50;;
12042;SDS011;6082;49.306;12.862;2022-11-20T14:48:48;9.07;;;5.30;;
12042;SDS011;6082;49.306;12.862;2022-11-20T14:54:20;12.90;;;6.53;;
12042;SDS011;6082;49.306;12.862;2022-11-20T14:56:54;8.60;;;6.33;;
12042;SDS011;6082;49.306;12.862;2022-11-20T14:59:31;6.70;;;4.40;;
12042;SDS011;6082;49.306;12.862;2022-11-20T15:02:02;7.83;;;5.33;;
12042;SDS011;6082;49.306;12.862;2022-11-20T15:04:28;9.20;;;4.90;;
12042;SDS011;6082;49.306;12.862;2022-11-20T15:06:56;14.70;;;6.90;;
12042;SDS011;6082;49.306;12.862;2022-11-20T15:09:22;14.67;;;6.73;;
12042;SDS011;6082;49.306;12.862;2022-11-20T15:11:52;8.17;;;4.60;;
12042;SDS011;6082;49.306;12.862;2022-11-20T15:14:19;4.57;;;3.73;;
12042;SDS011;6082;49.306;12.862;2022-11-20T15:16:45;5.23;;;3.40;;
12042;SDS011;6082;49.306;12.862;2022-11-20T15:19:19;4.53;;;3.23;;
12042;SDS011;6082;49.306;12.862;2022-11-20T15:21:46;3.57;;;2.80;;
12042;SDS011;6082;49.306;12.862;2022-11-20T15:24:12;5.37;;;3.70;;
12042;SDS011;6082;49.306;12.862;2022-11-20T15:26:38;6.50;;;3.17;;
12042;SDS011;6082;49.306;12.862;2022-11-20T15:29:05;4.33;;;2.73;;
12042;SDS011;6082;49.306;12.862;2022-11-20T15:31:33;6.13;;;2.93;;
12042;SDS011;6082;49.306;12.862;2022-11-20T15:34:00;4.13;;;2.90;;
12042;SDS011;6082;49.306;12.862;2022-11-20T15:36:26;4.27;;;3.33;;
12042;SDS011;6082;49.306;12.862;2022-11-20T15:38:52;8.80;;;5.50;;
12042;SDS011;6082;49.306;12.862;2022-11-20T15:41:18;8.83;;;4.70;;
12042;SDS011;6082;49.306;12.862;2022-11-20T15:43:47;5.30;;;3.47;;
12042;SDS011;6082;49.306;12.862;2022-11-20T15:46:14;4.47;;;3.33;;
12042;SDS011;6082;49.306;12.862;2022-11-20T15:48:42;5.43;;;2.90;;
12042;SDS011;6082;49.306;12.862;2022-11-20T15:53:35;4.00;;;2.90;;
12042;SDS011;6082;49.306;12.862;2022-11-20T15:56:02;5.20;;;2.93;;
12042;SDS011;6082;49.306;12.862;2022-11-20T15:58:29;4.63;;;3.33;;
12042;SDS011;6082;49.306;12.862;2022-11-20T16:00:55;5.67;;;3.30;;
12042;SDS011;6082;49.306;12.862;2022-11-20T16:03:21;5.00;;;3.40;;
12042;SDS011;6082;49.306;12.862;2022-11-20T16:05:48;4.13;;;2.53;;
12042;SDS011;6082;49.306;12.862;2022-11-20T16:08:14;3.17;;;2.60;;
12042;SDS011;6082;49.306;12.862;2022-11-20T16:10:40;5.17;;;2.33;;
12042;SDS011;6082;49.306;12.862;2022-11-20T16:13:14;2.67;;;1.80;;
12042;SDS011;6082;49.306;12.862;2022-11-20T16:16:01;2.47;;;2.13;;
12042;SDS011;6082;49.306;12.862;2022-11-20T16:18:29;3.10;;;1.53;;